• Join FlightAware (Why Join?)
  • Login
  • US Flag 
05:56PM EDT


 

Airport Tracker/Info


-or-


 

Live Flight TrackerFlight Track Log ✈ VNR104 ✈ 10-May-2013 ✈ KBNA - KMKL

Flight Track Log - Related Links

Times and Time Zones

All times are in EDT time to prevent confusion due to time zone crossing. See the VNR104 flight status page for this flight to view local times or setup timezone preferences in your user account.

Time Position Orientation Groundspeed Altitude Reporting Facility
EDT Latitude Longitude Course Direction KTS MPH feet Rate Location/Type
05:07PM 36.1167 -86.7500 270° West 149 171 3,900  Level Nashville TRACON
05:07PM 36.1167 -86.7833 270° West 183 211 4,000  Climbing Nashville TRACON
05:09PM 36.1167 -86.9000 270° West 237 273 3,900 480 Descending Nashville TRACON
05:09PM 36.1167 -86.9333 270° West 207 238 5,000 2,040 Climbing Nashville TRACON
05:10PM 36.1000 -87.0000 253° West 181 208 7,400 2,100 Climbing Nashville TRACON
05:11PM 36.0939 -87.0639 263° West 188 216 9,400 2,100 Climbing Memphis Center
05:12PM 36.0811 -87.1314 257° West 196 226 11,600 1,860 Climbing Memphis Center
05:13PM 36.0642 -87.2039 254° West 204 235 13,200 1,140 Climbing Memphis Center
05:14PM 36.0433 -87.2842 252° West 232 267 13,900 360 Climbing Memphis Center
05:15PM 36.0186 -87.3775 252° West 274 315 14,000  Climbing Memphis Center
05:16PM 35.9725 -87.4614 236° Southwest 294 338 14,000  Level Memphis Center
05:17PM 35.9242 -87.5372 232° Southwest 304 350 14,000  Level Memphis Center
05:18PM 35.8758 -87.6133 232° Southwest 284 327 14,000  Level Memphis Center
05:19PM 35.8317 -87.6917 235° Southwest 284 327 14,000  Level Memphis Center
05:20PM 35.7833 -87.7750 234° Southwest 298 343 14,000  Level Memphis Center
05:21PM 35.7453 -87.8478 237° Southwest 291 335 14,000  Level Memphis Center
05:22PM 35.7219 -87.9331 251° West 275 316 14,000  Level Memphis Center
05:23PM 35.7156 -88.0303 265° West 268 308 14,000 -300 Level Memphis Center
05:24PM 35.7025 -88.1175 260° West 276 318 13,400 -1,140 Descending Memphis Center
05:25PM 35.6958 -88.2047 265° West 271 312 11,800 -5,400 Descending Memphis Center
05:26PM 35.6825 -88.2944 260° West 259 298 2,600 -1,800 Descending Memphis Center
05:27PM 35.6733 -88.3664 261° West 234 269 8,200 1,680 Climbing Memphis Center
05:28PM 35.6603 -88.4533 260° West 242 278 6,000 -2,820 Descending Memphis Center
05:29PM 35.6508 -88.5356 262° West 249 287 2,600 -1,740 Descending Memphis Center
05:30PM 35.6394 -88.6122 260° West 249 287 2,600  Level Memphis Center
05:31PM 35.6322 -88.6814 263° West 231 266 2,600  Level Memphis Center
05:32PM 35.6225 -88.7481 260° West 218 251 2,600 -300 Level Memphis Center
05:33PM 35.6317 -88.7989 283° West 181 208 2,000 -540 Descending Memphis Center
05:34PM 35.6383 -88.8447 280° West 156 180 1,600 -300 Descending Memphis Center
05:35PM 35.6369 -88.8831 267° West 132 152 1,500 -360 Descending Memphis Center
05:36PM 35.6353 -88.9267 267° West 126 145 900 -600 Descending Memphis Center
05:38PM 35.5999 -88.9156 270° West  Level Estimated